Pioneer Knutsen — LMIK — position and weather

sailwx.info

Track history (hours):
 
Tides and Currents Weather Stations Pressure Air Temp Water Temp Dewpoint Dewpoint Depression Visibility Wind Speed Wind Dir Waves Ship Positions

Pioneer Knutsen

Last reported at 2016-May-04 10:10 UTC. Time now 2016-May-06 14:59 UTC.
Position N 63°29' E 008°60'.

; draft 3.6 m.

Type: Ship. MMSI: 259393000.

Date/timePositionNaut miles runAvg speedWind from/ knotsBaromVisibWave heightAir tempDewpointWater temp
2016-May-04 10:10N 63°29' E 008°60'711.2
2016-May-04 09:33N 63°32' E 009°13'1110.6
2016-May-04 08:33N 63°40' E 009°29'7410.5
2016-May-04 01:31N 64°44' E 010°56'1111.7
2016-May-04 00:33N 64°52' E 011°15'1211.6
2016-May-03 23:33N 64°59' E 011°36'1311.4
2016-May-03 22:27N 65°10' E 011°51'7 0.4
2016-May-03 03:33N 65°16' E 011°57'1211.7
2016-May-03 02:33N 65°05' E 011°47'1111.4
2016-May-03 01:33N 64°57' E 011°30'1111.3
2016-May-03 00:33N 64°49' E 011°10'7911.3
2016-May-02 17:33N 63°43' E 009°31'1210.8
2016-May-02 16:26N 63°33' E 009°17'  
2016-Apr-29 20:33N 63°29' E 009°00'1211.4
2016-Apr-29 19:27N 63°35' E 009°25'9 9.7
2016-Apr-29 18:33N 63°43' E 009°32'7 6.6
2016-Apr-29 17:33N 63°49' E 009°38'0 0.0
2016-Apr-29 16:33N 63°49' E 009°38'0 0.0
2016-Apr-29 15:33N 63°49' E 009°38'0 0.0
2016-Apr-29 14:33N 63°49' E 009°38'8 8.0
2016-Apr-29 13:33N 63°42' E 009°30'1210.7
2016-Apr-29 12:29N 63°32' E 009°15'  
2016-Apr-27 06:31N 63°30' E 009°05'1212.5
2016-Apr-27 05:34N 63°37' E 009°27'1211.4
2016-Apr-27 04:32N 63°48' E 009°34'1111.3
2016-Apr-27 03:33N 63°58' E 009°47'5711.3
2016-Apr-26 22:30N 64°45' E 010°59'1111.1
2016-Apr-26 21:34N 64°52' E 011°17'1211.8
2016-Apr-26 20:34N 65°00' E 011°38'1311.6
2016-Apr-26 19:24N 65°12' E 011°53'11 0.6
2016-Apr-26 01:03N 65°22' E 012°04'611.7
2016-Apr-26 00:33N 65°16' E 011°58'1211.9
2016-Apr-25 23:33N 65°05' E 011°47'1111.5
2016-Apr-25 22:33N 64°57' E 011°29'1212.0
2016-Apr-25 21:33N 64°49' E 011°08'7710.4
2016-Apr-25 14:08N 63°44' E 009°32'712.1
2016-Apr-25 13:33N 63°37' E 009°28'1111.5
2016-Apr-25 12:33N 63°30' E 009°07'  
Track history (hours):
 
Tides and Currents Weather Stations Pressure Air Temp Water Temp Dewpoint Dewpoint Depression Visibility Wind Speed Wind Dir Waves Ship Positions

Pioneer Knutsen

Last reported at 2016-May-04 10:10 UTC. Time now 2016-May-06 14:59 UTC.
Position N 63°29' E 008°60'.

; draft 3.6 m.

Type: Ship. MMSI: 259393000.

Date/timePositionNaut miles runAvg speedWind from/ knotsBaromVisibWave heightAir tempDewpointWater temp
2016-May-04 10:10N 63°29' E 008°60'711.2
2016-May-04 09:33N 63°32' E 009°13'1110.6
2016-May-04 08:33N 63°40' E 009°29'7410.5
2016-May-04 01:31N 64°44' E 010°56'1111.7
2016-May-04 00:33N 64°52' E 011°15'1211.6
2016-May-03 23:33N 64°59' E 011°36'1311.4
2016-May-03 22:27N 65°10' E 011°51'7 0.4
2016-May-03 03:33N 65°16' E 011°57'1211.7
2016-May-03 02:33N 65°05' E 011°47'1111.4
2016-May-03 01:33N 64°57' E 011°30'1111.3
2016-May-03 00:33N 64°49' E 011°10'7911.3
2016-May-02 17:33N 63°43' E 009°31'1210.8
2016-May-02 16:26N 63°33' E 009°17'  
2016-Apr-29 20:33N 63°29' E 009°00'1211.4
2016-Apr-29 19:27N 63°35' E 009°25'9 9.7
2016-Apr-29 18:33N 63°43' E 009°32'7 6.6
2016-Apr-29 17:33N 63°49' E 009°38'0 0.0
2016-Apr-29 16:33N 63°49' E 009°38'0 0.0
2016-Apr-29 15:33N 63°49' E 009°38'0 0.0
2016-Apr-29 14:33N 63°49' E 009°38'8 8.0
2016-Apr-29 13:33N 63°42' E 009°30'1210.7
2016-Apr-29 12:29N 63°32' E 009°15'  
2016-Apr-27 06:31N 63°30' E 009°05'1212.5
2016-Apr-27 05:34N 63°37' E 009°27'1211.4
2016-Apr-27 04:32N 63°48' E 009°34'1111.3
2016-Apr-27 03:33N 63°58' E 009°47'5711.3
2016-Apr-26 22:30N 64°45' E 010°59'1111.1
2016-Apr-26 21:34N 64°52' E 011°17'1211.8
2016-Apr-26 20:34N 65°00' E 011°38'1311.6
2016-Apr-26 19:24N 65°12' E 011°53'11 0.6
2016-Apr-26 01:03N 65°22' E 012°04'611.7
2016-Apr-26 00:33N 65°16' E 011°58'1211.9
2016-Apr-25 23:33N 65°05' E 011°47'1111.5
2016-Apr-25 22:33N 64°57' E 011°29'1212.0
2016-Apr-25 21:33N 64°49' E 011°08'7710.4
2016-Apr-25 14:08N 63°44' E 009°32'712.1
2016-Apr-25 13:33N 63°37' E 009°28'1111.5
2016-Apr-25 12:33N 63°30' E 009°07'  

Dump ship's entire track history